sensor_id;sensor_type;location;lat;lon;timestamp;P1;durP1;ratioP1;P2;durP2;ratioP2
21213;SDS011;10764;50.850;2.904;2023-11-19T00:01:04;451.80;;;410.23;;
21213;SDS011;10764;50.850;2.904;2023-11-19T00:08:33;557.40;;;506.03;;
21213;SDS011;10764;50.850;2.904;2023-11-19T00:11:00;632.58;;;574.55;;
21213;SDS011;10764;50.850;2.904;2023-11-19T00:13:27;608.15;;;552.20;;
21213;SDS011;10764;50.850;2.904;2023-11-19T00:15:55;638.13;;;579.47;;
21213;SDS011;10764;50.850;2.904;2023-11-19T00:18:25;734.13;;;667.78;;
21213;SDS011;10764;50.850;2.904;2023-11-19T00:20:55;692.90;;;629.90;;
21213;SDS011;10764;50.850;2.904;2023-11-19T00:23:23;685.65;;;623.35;;
21213;SDS011;10764;50.850;2.904;2023-11-19T00:25:54;703.17;;;639.55;;
21213;SDS011;10764;50.850;2.904;2023-11-19T00:28:22;714.53;;;649.85;;
21213;SDS011;10764;50.850;2.904;2023-11-19T00:30:50;638.07;;;579.70;;
21213;SDS011;10764;50.850;2.904;2023-11-19T00:33:17;676.38;;;614.80;;
21213;SDS011;10764;50.850;2.904;2023-11-19T00:35:46;470.23;;;426.73;;
21213;SDS011;10764;50.850;2.904;2023-11-19T00:38:16;124.63;;;114.10;;
21213;SDS011;10764;50.850;2.904;2023-11-19T00:40:45;189.10;;;172.00;;
21213;SDS011;10764;50.850;2.904;2023-11-19T00:43:13;143.68;;;131.57;;
21213;SDS011;10764;50.850;2.904;2023-11-19T00:45:44;550.37;;;499.67;;
21213;SDS011;10764;50.850;2.904;2023-11-19T00:48:11;100.25;;;91.90;;
21213;SDS011;10764;50.850;2.904;2023-11-19T00:50:39;341.37;;;310.07;;
21213;SDS011;10764;50.850;2.904;2023-11-19T00:53:10;396.85;;;361.13;;
21213;SDS011;10764;50.850;2.904;2023-11-19T00:55:37;191.20;;;174.02;;
21213;SDS011;10764;50.850;2.904;2023-11-19T00:58:12;723.63;;;658.17;;
21213;SDS011;10764;50.850;2.904;2023-11-19T01:00:42;698.20;;;634.92;;
21213;SDS011;10764;50.850;2.904;2023-11-19T01:03:11;725.10;;;659.88;;
21213;SDS011;10764;50.850;2.904;2023-11-19T01:05:38;134.90;;;123.53;;
21213;SDS011;10764;50.850;2.904;2023-11-19T01:08:06;675.72;;;614.13;;
21213;SDS011;10764;50.850;2.904;2023-11-19T01:10:36;707.88;;;643.83;;
21213;SDS011;10764;50.850;2.904;2023-11-19T01:13:06;228.48;;;208.00;;
21213;SDS011;10764;50.850;2.904;2023-11-19T01:18:07;443.17;;;402.05;;
21213;SDS011;10764;50.850;2.904;2023-11-19T01:20:36;390.02;;;354.23;;
21213;SDS011;10764;50.850;2.904;2023-11-19T01:23:03;436.35;;;396.08;;
21213;SDS011;10764;50.850;2.904;2023-11-19T01:25:30;477.97;;;433.53;;
21213;SDS011;10764;50.850;2.904;2023-11-19T01:27:57;479.30;;;434.83;;
21213;SDS011;10764;50.850;2.904;2023-11-19T01:30:27;288.02;;;261.58;;
21213;SDS011;10764;50.850;2.904;2023-11-19T01:32:54;32.25;;;29.02;;
21213;SDS011;10764;50.850;2.904;2023-11-19T01:35:23;21.85;;;17.25;;
21213;SDS011;10764;50.850;2.904;2023-11-19T01:37:53;16.20;;;9.52;;
21213;SDS011;10764;50.850;2.904;2023-11-19T01:40:21;17.57;;;11.40;;
21213;SDS011;10764;50.850;2.904;2023-11-19T01:42:48;15.90;;;9.43;;
21213;SDS011;10764;50.850;2.904;2023-11-19T01:45:26;15.50;;;9.13;;
21213;SDS011;10764;50.850;2.904;2023-11-19T01:47:59;19.45;;;12.95;;
21213;SDS011;10764;50.850;2.904;2023-11-19T01:50:30;32.75;;;29.20;;
21213;SDS011;10764;50.850;2.904;2023-11-19T01:52:59;58.75;;;53.13;;
21213;SDS011;10764;50.850;2.904;2023-11-19T01:55:30;117.10;;;106.80;;
21213;SDS011;10764;50.850;2.904;2023-11-19T01:57:59;137.32;;;125.40;;
21213;SDS011;10764;50.850;2.904;2023-11-19T02:00:28;152.43;;;139.13;;
21213;SDS011;10764;50.850;2.904;2023-11-19T02:02:56;109.15;;;99.72;;
21213;SDS011;10764;50.850;2.904;2023-11-19T02:05:29;115.50;;;105.70;;
21213;SDS011;10764;50.850;2.904;2023-11-19T02:07:58;218.23;;;198.18;;
21213;SDS011;10764;50.850;2.904;2023-11-19T02:10:27;143.13;;;130.83;;
21213;SDS011;10764;50.850;2.904;2023-11-19T02:12:57;111.15;;;101.50;;
21213;SDS011;10764;50.850;2.904;2023-11-19T02:15:34;201.55;;;183.23;;
21213;SDS011;10764;50.850;2.904;2023-11-19T02:18:23;128.02;;;117.03;;
21213;SDS011;10764;50.850;2.904;2023-11-19T02:20:50;115.50;;;105.50;;
21213;SDS011;10764;50.850;2.904;2023-11-19T02:23:18;192.52;;;174.95;;
21213;SDS011;10764;50.850;2.904;2023-11-19T02:28:35;211.30;;;192.23;;
21213;SDS011;10764;50.850;2.904;2023-11-19T02:31:03;192.60;;;174.93;;
21213;SDS011;10764;50.850;2.904;2023-11-19T02:36:08;161.63;;;147.20;;
21213;SDS011;10764;50.850;2.904;2023-11-19T02:38:36;158.55;;;144.55;;
21213;SDS011;10764;50.850;2.904;2023-11-19T02:41:04;166.63;;;152.10;;
21213;SDS011;10764;50.850;2.904;2023-11-19T02:43:33;189.20;;;171.98;;
21213;SDS011;10764;50.850;2.904;2023-11-19T02:46:01;269.17;;;244.37;;
21213;SDS011;10764;50.850;2.904;2023-11-19T02:48:41;381.85;;;346.35;;
21213;SDS011;10764;50.850;2.904;2023-11-19T02:51:09;371.70;;;336.67;;
21213;SDS011;10764;50.850;2.904;2023-11-19T02:53:37;409.73;;;371.50;;
21213;SDS011;10764;50.850;2.904;2023-11-19T02:56:06;381.53;;;345.83;;
21213;SDS011;10764;50.850;2.904;2023-11-19T02:58:52;431.85;;;391.40;;
21213;SDS011;10764;50.850;2.904;2023-11-19T03:01:24;472.27;;;428.10;;
21213;SDS011;10764;50.850;2.904;2023-11-19T03:03:58;484.90;;;439.08;;
21213;SDS011;10764;50.850;2.904;2023-11-19T03:06:30;487.58;;;441.98;;
21213;SDS011;10764;50.850;2.904;2023-11-19T03:08:57;505.38;;;457.92;;
21213;SDS011;10764;50.850;2.904;2023-11-19T03:11:25;535.38;;;485.40;;
21213;SDS011;10764;50.850;2.904;2023-11-19T03:13:52;515.10;;;466.87;;
21213;SDS011;10764;50.850;2.904;2023-11-19T03:16:22;520.13;;;471.25;;
21213;SDS011;10764;50.850;2.904;2023-11-19T03:18:49;394.45;;;357.60;;
21213;SDS011;10764;50.850;2.904;2023-11-19T03:21:17;411.80;;;373.48;;
21213;SDS011;10764;50.850;2.904;2023-11-19T03:23:50;455.90;;;413.17;;
21213;SDS011;10764;50.850;2.904;2023-11-19T03:26:20;508.90;;;461.00;;
21213;SDS011;10764;50.850;2.904;2023-11-19T03:28:51;561.72;;;509.35;;
21213;SDS011;10764;50.850;2.904;2023-11-19T03:31:19;552.00;;;500.30;;
21213;SDS011;10764;50.850;2.904;2023-11-19T03:33:48;596.47;;;540.95;;
21213;SDS011;10764;50.850;2.904;2023-11-19T03:36:15;695.20;;;632.00;;
21213;SDS011;10764;50.850;2.904;2023-11-19T03:38:45;773.10;;;703.57;;
21213;SDS011;10764;50.850;2.904;2023-11-19T03:41:16;890.80;;;811.80;;
21213;SDS011;10764;50.850;2.904;2023-11-19T03:43:45;904.45;;;824.58;;
21213;SDS011;10764;50.850;2.904;2023-11-19T03:46:24;960.50;;;876.63;;
21213;SDS011;10764;50.850;2.904;2023-11-19T03:48:51;1007.47;;;920.30;;
21213;SDS011;10764;50.850;2.904;2023-11-19T03:51:19;1053.10;;;963.03;;
21213;SDS011;10764;50.850;2.904;2023-11-19T03:53:49;1132.40;;;999.90;;
21213;SDS011;10764;50.850;2.904;2023-11-19T03:56:17;1149.55;;;999.90;;
21213;SDS011;10764;50.850;2.904;2023-11-19T03:58:44;1167.28;;;999.90;;
21213;SDS011;10764;50.850;2.904;2023-11-19T04:01:17;1002.53;;;915.92;;
21213;SDS011;10764;50.850;2.904;2023-11-19T04:03:45;891.72;;;813.08;;
21213;SDS011;10764;50.850;2.904;2023-11-19T04:06:18;928.90;;;847.13;;
21213;SDS011;10764;50.850;2.904;2023-11-19T04:08:49;921.42;;;840.10;;
21213;SDS011;10764;50.850;2.904;2023-11-19T04:11:18;927.15;;;845.58;;
21213;SDS011;10764;50.850;2.904;2023-11-19T04:13:44;896.63;;;817.28;;
21213;SDS011;10764;50.850;2.904;2023-11-19T04:16:12;877.28;;;799.03;;
21213;SDS011;10764;50.850;2.904;2023-11-19T04:18:42;864.13;;;787.33;;
21213;SDS011;10764;50.850;2.904;2023-11-19T04:21:09;883.20;;;804.88;;
21213;SDS011;10764;50.850;2.904;2023-11-19T04:23:37;902.90;;;822.95;;
21213;SDS011;10764;50.850;2.904;2023-11-19T04:26:04;916.23;;;835.53;;
21213;SDS011;10764;50.850;2.904;2023-11-19T04:28:36;930.28;;;848.58;;
21213;SDS011;10764;50.850;2.904;2023-11-19T04:31:06;901.83;;;822.00;;
21213;SDS011;10764;50.850;2.904;2023-11-19T04:33:33;959.03;;;875.38;;
21213;SDS011;10764;50.850;2.904;2023-11-19T04:36:03;967.72;;;883.33;;
21213;SDS011;10764;50.850;2.904;2023-11-19T04:38:30;1003.17;;;916.55;;
21213;SDS011;10764;50.850;2.904;2023-11-19T04:40:58;999.57;;;913.07;;
21213;SDS011;10764;50.850;2.904;2023-11-19T04:43:27;1028.95;;;940.70;;
21213;SDS011;10764;50.850;2.904;2023-11-19T04:45:54;1091.40;;;998.85;;
21213;SDS011;10764;50.850;2.904;2023-11-19T04:48:21;1136.30;;;999.90;;
21213;SDS011;10764;50.850;2.904;2023-11-19T04:50:52;1156.22;;;999.90;;
21213;SDS011;10764;50.850;2.904;2023-11-19T04:53:19;1168.67;;;999.90;;
21213;SDS011;10764;50.850;2.904;2023-11-19T04:55:46;1174.00;;;999.90;;
21213;SDS011;10764;50.850;2.904;2023-11-19T04:58:15;1205.07;;;999.90;;
21213;SDS011;10764;50.850;2.904;2023-11-19T05:00:44;1010.10;;;922.97;;
21213;SDS011;10764;50.850;2.904;2023-11-19T05:03:18;1116.30;;;999.90;;
21213;SDS011;10764;50.850;2.904;2023-11-19T05:05:46;1155.93;;;999.90;;
21213;SDS011;10764;50.850;2.904;2023-11-19T05:08:15;1168.40;;;999.90;;
21213;SDS011;10764;50.850;2.904;2023-11-19T05:10:43;1168.13;;;999.90;;
21213;SDS011;10764;50.850;2.904;2023-11-19T05:13:10;1167.60;;;999.90;;
21213;SDS011;10764;50.850;2.904;2023-11-19T05:18:09;1184.90;;;999.90;;
21213;SDS011;10764;50.850;2.904;2023-11-19T05:20:37;1185.80;;;999.90;;
21213;SDS011;10764;50.850;2.904;2023-11-19T05:23:04;1216.83;;;999.90;;
21213;SDS011;10764;50.850;2.904;2023-11-19T05:25:32;914.35;;;834.42;;
21213;SDS011;10764;50.850;2.904;2023-11-19T05:28:03;963.45;;;879.60;;
21213;SDS011;10764;50.850;2.904;2023-11-19T05:30:31;1121.35;;;999.90;;
21213;SDS011;10764;50.850;2.904;2023-11-19T05:32:59;1197.05;;;999.90;;
21213;SDS011;10764;50.850;2.904;2023-11-19T05:35:27;1121.13;;;999.90;;
21213;SDS011;10764;50.850;2.904;2023-11-19T05:37:54;582.87;;;529.70;;
21213;SDS011;10764;50.850;2.904;2023-11-19T05:42:54;279.40;;;253.55;;
21213;SDS011;10764;50.850;2.904;2023-11-19T05:45:23;239.65;;;217.60;;
21213;SDS011;10764;50.850;2.904;2023-11-19T05:47:53;207.13;;;188.23;;
21213;SDS011;10764;50.850;2.904;2023-11-19T05:52:50;211.02;;;191.75;;
21213;SDS011;10764;50.850;2.904;2023-11-19T05:55:20;190.87;;;173.50;;
21213;SDS011;10764;50.850;2.904;2023-11-19T05:57:47;204.23;;;185.63;;
21213;SDS011;10764;50.850;2.904;2023-11-19T06:00:14;199.00;;;181.02;;
21213;SDS011;10764;50.850;2.904;2023-11-19T06:02:45;182.45;;;165.95;;
21213;SDS011;10764;50.850;2.904;2023-11-19T06:05:13;209.55;;;190.68;;
21213;SDS011;10764;50.850;2.904;2023-11-19T06:07:40;207.15;;;188.40;;
21213;SDS011;10764;50.850;2.904;2023-11-19T06:10:07;187.23;;;170.25;;
21213;SDS011;10764;50.850;2.904;2023-11-19T06:12:38;197.73;;;179.80;;
21213;SDS011;10764;50.850;2.904;2023-11-19T06:15:09;193.65;;;175.90;;
21213;SDS011;10764;50.850;2.904;2023-11-19T06:17:35;222.73;;;202.20;;
21213;SDS011;10764;50.850;2.904;2023-11-19T06:20:04;208.40;;;189.30;;
21213;SDS011;10764;50.850;2.904;2023-11-19T06:22:31;213.80;;;194.38;;
21213;SDS011;10764;50.850;2.904;2023-11-19T06:24:59;213.47;;;194.07;;
21213;SDS011;10764;50.850;2.904;2023-11-19T06:27:29;224.88;;;204.13;;
21213;SDS011;10764;50.850;2.904;2023-11-19T06:29:56;231.07;;;209.90;;
21213;SDS011;10764;50.850;2.904;2023-11-19T06:32:26;230.48;;;209.43;;
21213;SDS011;10764;50.850;2.904;2023-11-19T06:34:56;217.88;;;198.15;;
21213;SDS011;10764;50.850;2.904;2023-11-19T06:37:24;198.85;;;180.80;;
21213;SDS011;10764;50.850;2.904;2023-11-19T06:39:51;201.18;;;182.82;;
21213;SDS011;10764;50.850;2.904;2023-11-19T06:42:18;191.93;;;174.48;;
21213;SDS011;10764;50.850;2.904;2023-11-19T06:44:45;172.85;;;157.32;;
21213;SDS011;10764;50.850;2.904;2023-11-19T06:47:12;179.30;;;163.13;;
21213;SDS011;10764;50.850;2.904;2023-11-19T06:49:39;164.50;;;149.87;;
21213;SDS011;10764;50.850;2.904;2023-11-19T06:52:06;176.50;;;160.50;;
21213;SDS011;10764;50.850;2.904;2023-11-19T06:54:33;73.40;;;66.53;;
21213;SDS011;10764;50.850;2.904;2023-11-19T06:57:00;106.93;;;97.50;;
21213;SDS011;10764;50.850;2.904;2023-11-19T06:59:27;206.30;;;187.60;;
21213;SDS011;10764;50.850;2.904;2023-11-19T07:01:56;93.35;;;84.60;;
21213;SDS011;10764;50.850;2.904;2023-11-19T07:04:26;222.15;;;201.90;;
21213;SDS011;10764;50.850;2.904;2023-11-19T07:06:53;228.75;;;207.75;;
21213;SDS011;10764;50.850;2.904;2023-11-19T07:09:20;217.50;;;197.80;;
21213;SDS011;10764;50.850;2.904;2023-11-19T07:11:47;212.50;;;192.93;;
21213;SDS011;10764;50.850;2.904;2023-11-19T07:14:18;202.77;;;184.17;;
21213;SDS011;10764;50.850;2.904;2023-11-19T07:16:46;210.45;;;191.57;;
21213;SDS011;10764;50.850;2.904;2023-11-19T07:19:14;181.85;;;165.25;;
21213;SDS011;10764;50.850;2.904;2023-11-19T07:21:41;188.00;;;170.88;;
21213;SDS011;10764;50.850;2.904;2023-11-19T07:24:10;212.23;;;193.07;;
21213;SDS011;10764;50.850;2.904;2023-11-19T07:26:45;207.85;;;188.82;;
21213;SDS011;10764;50.850;2.904;2023-11-19T07:29:14;208.13;;;189.07;;
21213;SDS011;10764;50.850;2.904;2023-11-19T07:31:54;233.10;;;212.05;;
21213;SDS011;10764;50.850;2.904;2023-11-19T07:34:24;178.40;;;162.27;;
21213;SDS011;10764;50.850;2.904;2023-11-19T07:36:51;154.45;;;140.73;;
21213;SDS011;10764;50.850;2.904;2023-11-19T07:39:19;143.82;;;130.88;;
21213;SDS011;10764;50.850;2.904;2023-11-19T07:41:47;200.45;;;181.80;;
21213;SDS011;10764;50.850;2.904;2023-11-19T07:44:14;184.90;;;168.13;;
21213;SDS011;10764;50.850;2.904;2023-11-19T07:46:42;194.88;;;176.60;;
21213;SDS011;10764;50.850;2.904;2023-11-19T07:49:11;211.27;;;191.70;;
21213;SDS011;10764;50.850;2.904;2023-11-19T07:51:38;187.93;;;170.93;;
21213;SDS011;10764;50.850;2.904;2023-11-19T07:54:06;188.30;;;170.93;;
21213;SDS011;10764;50.850;2.904;2023-11-19T07:56:33;163.52;;;148.52;;
21213;SDS011;10764;50.850;2.904;2023-11-19T07:59:03;165.15;;;149.10;;
21213;SDS011;10764;50.850;2.904;2023-11-19T08:01:31;167.20;;;151.00;;
21213;SDS011;10764;50.850;2.904;2023-11-19T08:03:59;171.60;;;154.70;;
21213;SDS011;10764;50.850;2.904;2023-11-19T08:06:28;179.82;;;162.05;;
21213;SDS011;10764;50.850;2.904;2023-11-19T08:08:56;201.38;;;181.93;;
21213;SDS011;10764;50.850;2.904;2023-11-19T08:11:24;256.20;;;231.57;;
21213;SDS011;10764;50.850;2.904;2023-11-19T08:13:51;276.25;;;249.20;;
21213;SDS011;10764;50.850;2.904;2023-11-19T08:16:18;187.07;;;169.00;;
21213;SDS011;10764;50.850;2.904;2023-11-19T08:18:45;217.05;;;196.57;;
21213;SDS011;10764;50.850;2.904;2023-11-19T08:21:12;208.25;;;188.88;;
21213;SDS011;10764;50.850;2.904;2023-11-19T08:23:40;210.40;;;190.07;;
21213;SDS011;10764;50.850;2.904;2023-11-19T08:26:08;143.25;;;129.73;;
21213;SDS011;10764;50.850;2.904;2023-11-19T08:28:35;217.93;;;197.52;;
21213;SDS011;10764;50.850;2.904;2023-11-19T08:31:03;232.53;;;210.97;;
21213;SDS011;10764;50.850;2.904;2023-11-19T08:33:32;221.48;;;200.50;;
21213;SDS011;10764;50.850;2.904;2023-11-19T08:35:59;237.57;;;215.30;;
21213;SDS011;10764;50.850;2.904;2023-11-19T08:38:27;248.57;;;225.27;;
21213;SDS011;10764;50.850;2.904;2023-11-19T08:40:57;262.23;;;237.73;;
21213;SDS011;10764;50.850;2.904;2023-11-19T08:43:27;259.20;;;234.82;;
21213;SDS011;10764;50.850;2.904;2023-11-19T08:45:55;274.98;;;249.20;;
21213;SDS011;10764;50.850;2.904;2023-11-19T08:48:22;268.73;;;243.73;;
21213;SDS011;10764;50.850;2.904;2023-11-19T08:50:49;273.08;;;247.02;;
21213;SDS011;10764;50.850;2.904;2023-11-19T08:53:16;278.20;;;252.18;;
21213;SDS011;10764;50.850;2.904;2023-11-19T08:55:43;280.77;;;254.27;;
21213;SDS011;10764;50.850;2.904;2023-11-19T08:58:12;290.05;;;262.67;;
21213;SDS011;10764;50.850;2.904;2023-11-19T09:00:40;282.88;;;256.27;;
21213;SDS011;10764;50.850;2.904;2023-11-19T09:03:07;298.15;;;270.25;;
21213;SDS011;10764;50.850;2.904;2023-11-19T09:05:37;288.77;;;262.02;;
21213;SDS011;10764;50.850;2.904;2023-11-19T09:08:04;305.13;;;276.52;;
21213;SDS011;10764;50.850;2.904;2023-11-19T09:10:32;297.83;;;270.15;;
21213;SDS011;10764;50.850;2.904;2023-11-19T09:13:00;292.20;;;264.88;;
21213;SDS011;10764;50.850;2.904;2023-11-19T09:15:27;269.48;;;244.45;;
21213;SDS011;10764;50.850;2.904;2023-11-19T09:17:54;314.73;;;285.38;;
21213;SDS011;10764;50.850;2.904;2023-11-19T09:20:22;284.00;;;257.55;;
21213;SDS011;10764;50.850;2.904;2023-11-19T09:22:49;306.55;;;277.83;;
21213;SDS011;10764;50.850;2.904;2023-11-19T09:25:17;298.95;;;271.05;;
21213;SDS011;10764;50.850;2.904;2023-11-19T09:27:44;309.48;;;280.65;;
21213;SDS011;10764;50.850;2.904;2023-11-19T09:30:11;308.20;;;279.35;;
21213;SDS011;10764;50.850;2.904;2023-11-19T09:32:40;314.33;;;284.88;;
21213;SDS011;10764;50.850;2.904;2023-11-19T09:35:07;326.85;;;296.33;;
21213;SDS011;10764;50.850;2.904;2023-11-19T09:37:35;326.88;;;296.42;;
21213;SDS011;10764;50.850;2.904;2023-11-19T09:40:02;303.73;;;275.50;;
21213;SDS011;10764;50.850;2.904;2023-11-19T09:42:30;307.85;;;279.20;;
21213;SDS011;10764;50.850;2.904;2023-11-19T09:45:04;305.45;;;276.90;;
21213;SDS011;10764;50.850;2.904;2023-11-19T09:47:39;256.92;;;233.20;;
21213;SDS011;10764;50.850;2.904;2023-11-19T09:50:06;267.40;;;242.80;;
21213;SDS011;10764;50.850;2.904;2023-11-19T09:52:34;280.70;;;254.68;;
21213;SDS011;10764;50.850;2.904;2023-11-19T09:55:01;272.02;;;246.95;;
21213;SDS011;10764;50.850;2.904;2023-11-19T09:57:28;275.08;;;249.63;;
21213;SDS011;10764;50.850;2.904;2023-11-19T10:00:00;264.92;;;240.13;;
21213;SDS011;10764;50.850;2.904;2023-11-19T10:02:31;264.13;;;239.73;;
21213;SDS011;10764;50.850;2.904;2023-11-19T10:05:00;221.60;;;201.15;;
21213;SDS011;10764;50.850;2.904;2023-11-19T10:07:32;195.87;;;178.23;;
21213;SDS011;10764;50.850;2.904;2023-11-19T10:10:00;247.57;;;225.13;;
21213;SDS011;10764;50.850;2.904;2023-11-19T10:12:30;288.60;;;262.05;;
21213;SDS011;10764;50.850;2.904;2023-11-19T10:14:58;318.67;;;289.05;;
21213;SDS011;10764;50.850;2.904;2023-11-19T10:17:29;379.60;;;344.25;;
21213;SDS011;10764;50.850;2.904;2023-11-19T10:20:00;380.60;;;345.02;;
21213;SDS011;10764;50.850;2.904;2023-11-19T10:22:28;392.48;;;355.83;;
21213;SDS011;10764;50.850;2.904;2023-11-19T10:24:55;306.40;;;278.07;;
21213;SDS011;10764;50.850;2.904;2023-11-19T10:27:25;283.83;;;257.55;;
21213;SDS011;10764;50.850;2.904;2023-11-19T10:29:53;429.65;;;389.80;;
21213;SDS011;10764;50.850;2.904;2023-11-19T10:32:20;431.37;;;391.13;;
21213;SDS011;10764;50.850;2.904;2023-11-19T10:35:01;439.60;;;398.65;;
21213;SDS011;10764;50.850;2.904;2023-11-19T10:37:33;437.42;;;396.65;;
21213;SDS011;10764;50.850;2.904;2023-11-19T10:40:02;463.53;;;420.40;;
21213;SDS011;10764;50.850;2.904;2023-11-19T10:42:31;474.85;;;430.15;;
21213;SDS011;10764;50.850;2.904;2023-11-19T10:44:59;429.83;;;389.10;;
21213;SDS011;10764;50.850;2.904;2023-11-19T10:47:26;448.38;;;406.55;;
21213;SDS011;10764;50.850;2.904;2023-11-19T10:49:58;485.47;;;440.10;;
21213;SDS011;10764;50.850;2.904;2023-11-19T10:52:25;477.90;;;433.50;;
21213;SDS011;10764;50.850;2.904;2023-11-19T10:54:54;1185.95;;;999.90;;
21213;SDS011;10764;50.850;2.904;2023-11-19T10:57:28;1199.18;;;999.90;;
21213;SDS011;10764;50.850;2.904;2023-11-19T11:00:00;1233.10;;;999.90;;
21213;SDS011;10764;50.850;2.904;2023-11-19T11:02:30;1231.78;;;999.90;;
21213;SDS011;10764;50.850;2.904;2023-11-19T11:05:06;1226.97;;;999.90;;
21213;SDS011;10764;50.850;2.904;2023-11-19T11:07:34;1235.35;;;999.90;;
21213;SDS011;10764;50.850;2.904;2023-11-19T11:10:08;1243.90;;;999.90;;
21213;SDS011;10764;50.850;2.904;2023-11-19T11:12:36;1233.85;;;999.90;;
21213;SDS011;10764;50.850;2.904;2023-11-19T11:15:08;1208.90;;;999.90;;
21213;SDS011;10764;50.850;2.904;2023-11-19T11:17:40;1205.15;;;999.90;;
21213;SDS011;10764;50.850;2.904;2023-11-19T11:20:10;1211.15;;;999.90;;
21213;SDS011;10764;50.850;2.904;2023-11-19T11:22:44;1206.88;;;999.90;;
21213;SDS011;10764;50.850;2.904;2023-11-19T11:37:13;782.67;;;712.87;;
21213;SDS011;10764;50.850;2.904;2023-11-19T11:39:46;844.15;;;769.63;;
21213;SDS011;10764;50.850;2.904;2023-11-19T11:45:04;823.67;;;750.40;;
21213;SDS011;10764;50.850;2.904;2023-11-19T11:50:12;798.15;;;727.28;;
21213;SDS011;10764;50.850;2.904;2023-11-19T11:55:25;745.80;;;679.00;;
21213;SDS011;10764;50.850;2.904;2023-11-19T11:57:52;759.40;;;691.45;;
21213;SDS011;10764;50.850;2.904;2023-11-19T12:00:26;1179.00;;;999.90;;
21213;SDS011;10764;50.850;2.904;2023-11-19T12:02:56;1230.88;;;999.90;;
21213;SDS011;10764;50.850;2.904;2023-11-19T12:05:26;1230.07;;;999.90;;
21213;SDS011;10764;50.850;2.904;2023-11-19T12:08:00;1122.93;;;999.90;;
21213;SDS011;10764;50.850;2.904;2023-11-19T12:10:37;1011.53;;;924.60;;
21213;SDS011;10764;50.850;2.904;2023-11-19T12:13:11;900.35;;;821.33;;
21213;SDS011;10764;50.850;2.904;2023-11-19T12:18:24;844.35;;;769.55;;
21213;SDS011;10764;50.850;2.904;2023-11-19T12:20:54;843.70;;;769.22;;
21213;SDS011;10764;50.850;2.904;2023-11-19T12:23:22;882.75;;;804.95;;
21213;SDS011;10764;50.850;2.904;2023-11-19T12:25:51;919.65;;;839.10;;
21213;SDS011;10764;50.850;2.904;2023-11-19T12:28:18;918.22;;;838.00;;
21213;SDS011;10764;50.850;2.904;2023-11-19T12:30:45;928.40;;;847.23;;
21213;SDS011;10764;50.850;2.904;2023-11-19T12:33:14;886.00;;;808.05;;
21213;SDS011;10764;50.850;2.904;2023-11-19T12:35:44;888.92;;;810.67;;
21213;SDS011;10764;50.850;2.904;2023-11-19T12:38:18;897.60;;;818.67;;
21213;SDS011;10764;50.850;2.904;2023-11-19T12:41:02;948.45;;;866.08;;
21213;SDS011;10764;50.850;2.904;2023-11-19T12:43:30;906.28;;;826.75;;
21213;SDS011;10764;50.850;2.904;2023-11-19T12:45:57;910.30;;;830.27;;
21213;SDS011;10764;50.850;2.904;2023-11-19T12:48:24;825.50;;;752.35;;
21213;SDS011;10764;50.850;2.904;2023-11-19T12:50:57;456.83;;;414.08;;
21213;SDS011;10764;50.850;2.904;2023-11-19T12:53:26;446.35;;;404.70;;
21213;SDS011;10764;50.850;2.904;2023-11-19T12:55:53;1209.40;;;999.90;;
21213;SDS011;10764;50.850;2.904;2023-11-19T12:58:35;1193.88;;;999.90;;
21213;SDS011;10764;50.850;2.904;2023-11-19T13:01:03;1234.32;;;999.90;;
21213;SDS011;10764;50.850;2.904;2023-11-19T13:03:32;1225.55;;;999.90;;
21213;SDS011;10764;50.850;2.904;2023-11-19T13:06:01;1221.05;;;999.90;;
21213;SDS011;10764;50.850;2.904;2023-11-19T13:08:43;1215.97;;;999.90;;
21213;SDS011;10764;50.850;2.904;2023-11-19T13:11:32;1236.03;;;999.90;;
21213;SDS011;10764;50.850;2.904;2023-11-19T13:14:03;1233.30;;;999.90;;
21213;SDS011;10764;50.850;2.904;2023-11-19T13:16:32;1229.13;;;999.90;;
21213;SDS011;10764;50.850;2.904;2023-11-19T13:18:59;1228.03;;;999.90;;
21213;SDS011;10764;50.850;2.904;2023-11-19T13:21:27;1185.80;;;999.90;;
21213;SDS011;10764;50.850;2.904;2023-11-19T13:23:56;1228.90;;;999.90;;
21213;SDS011;10764;50.850;2.904;2023-11-19T13:26:23;1230.18;;;999.90;;
21213;SDS011;10764;50.850;2.904;2023-11-19T13:28:50;1231.15;;;999.90;;
21213;SDS011;10764;50.850;2.904;2023-11-19T13:31:17;1226.63;;;999.90;;
21213;SDS011;10764;50.850;2.904;2023-11-19T13:33:45;1228.43;;;999.90;;
21213;SDS011;10764;50.850;2.904;2023-11-19T13:36:12;1231.68;;;999.90;;
21213;SDS011;10764;50.850;2.904;2023-11-19T13:38:42;1229.07;;;999.90;;
21213;SDS011;10764;50.850;2.904;2023-11-19T13:41:13;1231.18;;;999.90;;
21213;SDS011;10764;50.850;2.904;2023-11-19T13:43:41;1229.32;;;999.90;;
21213;SDS011;10764;50.850;2.904;2023-11-19T13:46:08;1227.70;;;999.90;;
21213;SDS011;10764;50.850;2.904;2023-11-19T13:48:39;1226.78;;;999.90;;
21213;SDS011;10764;50.850;2.904;2023-11-19T13:51:06;1222.17;;;999.90;;
21213;SDS011;10764;50.850;2.904;2023-11-19T13:53:34;1224.25;;;999.90;;
21213;SDS011;10764;50.850;2.904;2023-11-19T13:56:04;1221.55;;;999.90;;
21213;SDS011;10764;50.850;2.904;2023-11-19T13:58:32;1223.05;;;999.90;;
21213;SDS011;10764;50.850;2.904;2023-11-19T14:00:59;1225.85;;;999.90;;
21213;SDS011;10764;50.850;2.904;2023-11-19T14:03:25;1225.50;;;999.90;;
21213;SDS011;10764;50.850;2.904;2023-11-19T14:05:53;1142.83;;;999.90;;
21213;SDS011;10764;50.850;2.904;2023-11-19T14:08:21;1163.03;;;999.90;;
21213;SDS011;10764;50.850;2.904;2023-11-19T14:10:51;1089.72;;;996.90;;
21213;SDS011;10764;50.850;2.904;2023-11-19T14:13:22;1107.68;;;999.90;;
21213;SDS011;10764;50.850;2.904;2023-11-19T14:15:49;1023.28;;;935.95;;
21213;SDS011;10764;50.850;2.904;2023-11-19T14:18:17;1048.72;;;959.88;;
21213;SDS011;10764;50.850;2.904;2023-11-19T14:20:45;969.50;;;885.88;;
21213;SDS011;10764;50.850;2.904;2023-11-19T14:23:12;868.15;;;791.67;;
21213;SDS011;10764;50.850;2.904;2023-11-19T14:25:39;865.67;;;789.58;;
21213;SDS011;10764;50.850;2.904;2023-11-19T14:28:06;944.00;;;862.00;;
21213;SDS011;10764;50.850;2.904;2023-11-19T14:30:34;771.07;;;702.47;;
21213;SDS011;10764;50.850;2.904;2023-11-19T14:33:01;754.30;;;687.07;;
21213;SDS011;10764;50.850;2.904;2023-11-19T14:35:31;651.27;;;592.37;;
21213;SDS011;10764;50.850;2.904;2023-11-19T14:37:59;726.33;;;661.33;;
21213;SDS011;10764;50.850;2.904;2023-11-19T14:40:26;527.60;;;478.75;;
21213;SDS011;10764;50.850;2.904;2023-11-19T14:42:56;466.77;;;423.30;;
21213;SDS011;10764;50.850;2.904;2023-11-19T14:45:23;553.03;;;502.13;;
21213;SDS011;10764;50.850;2.904;2023-11-19T14:47:50;557.50;;;505.60;;